sensor_id;sensor_type;location;lat;lon;timestamp;pressure;altitude;pressure_sealevel;temperature;humidity
46955;BME280;32708;51.212;6.788;2024-02-26T00:00:02;99159.19;;;10.98;100.00
46955;BME280;32708;51.212;6.788;2024-02-26T00:02:31;99153.50;;;11.49;100.00
46955;BME280;32708;51.212;6.788;2024-02-26T00:04:59;99172.91;;;11.63;100.00
46955;BME280;32708;51.212;6.788;2024-02-26T00:07:25;99172.88;;;11.40;100.00
46955;BME280;32708;51.212;6.788;2024-02-26T00:09:52;99169.84;;;11.03;100.00
46955;BME280;32708;51.212;6.788;2024-02-26T00:12:18;99168.47;;;10.74;100.00
46955;BME280;32708;51.212;6.788;2024-02-26T00:14:44;99156.47;;;11.17;100.00
46955;BME280;32708;51.212;6.788;2024-02-26T00:17:13;99168.72;;;11.27;100.00
46955;BME280;32708;51.212;6.788;2024-02-26T00:19:39;99168.69;;;11.23;100.00
46955;BME280;32708;51.212;6.788;2024-02-26T00:22:06;99161.78;;;11.29;100.00
46955;BME280;32708;51.212;6.788;2024-02-26T00:24:32;99157.03;;;11.07;100.00
46955;BME280;32708;51.212;6.788;2024-02-26T00:26:59;99151.97;;;11.28;100.00
46955;BME280;32708;51.212;6.788;2024-02-26T00:29:26;99153.72;;;11.17;100.00
46955;BME280;32708;51.212;6.788;2024-02-26T00:31:52;99147.84;;;11.80;100.00
46955;BME280;32708;51.212;6.788;2024-02-26T00:34:18;99145.94;;;11.84;100.00
46955;BME280;32708;51.212;6.788;2024-02-26T00:36:45;99158.31;;;11.13;100.00
46955;BME280;32708;51.212;6.788;2024-02-26T00:39:12;99162.50;;;11.49;100.00
46955;BME280;32708;51.212;6.788;2024-02-26T00:41:41;99142.91;;;11.44;100.00
46955;BME280;32708;51.212;6.788;2024-02-26T00:44:08;99157.88;;;11.30;100.00
46955;BME280;32708;51.212;6.788;2024-02-26T00:46:34;99149.03;;;11.60;100.00
46955;BME280;32708;51.212;6.788;2024-02-26T00:49:00;99154.66;;;11.48;100.00
46955;BME280;32708;51.212;6.788;2024-02-26T00:51:27;99156.56;;;11.44;100.00
46955;BME280;32708;51.212;6.788;2024-02-26T00:53:54;99146.88;;;11.50;100.00
46955;BME280;32708;51.212;6.788;2024-02-26T00:56:22;99146.44;;;11.44;100.00
46955;BME280;32708;51.212;6.788;2024-02-26T00:58:48;99153.31;;;10.77;100.00
46955;BME280;32708;51.212;6.788;2024-02-26T01:01:14;99164.22;;;11.15;100.00
46955;BME280;32708;51.212;6.788;2024-02-26T01:03:40;99153.63;;;11.56;100.00
46955;BME280;32708;51.212;6.788;2024-02-26T01:06:06;99151.97;;;11.28;100.00
46955;BME280;32708;51.212;6.788;2024-02-26T01:08:33;99158.34;;;10.94;100.00
46955;BME280;32708;51.212;6.788;2024-02-26T01:10:59;99170.06;;;10.40;100.00
46955;BME280;32708;51.212;6.788;2024-02-26T01:13:25;99172.09;;;10.27;100.00
46955;BME280;32708;51.212;6.788;2024-02-26T01:15:51;99171.13;;;10.90;100.00
46955;BME280;32708;51.212;6.788;2024-02-26T01:18:17;99169.97;;;10.71;100.00
46955;BME280;32708;51.212;6.788;2024-02-26T01:20:43;99168.09;;;10.75;100.00
46955;BME280;32708;51.212;6.788;2024-02-26T01:23:10;99158.25;;;10.52;100.00
46955;BME280;32708;51.212;6.788;2024-02-26T01:25:36;99160.00;;;10.79;100.00
46955;BME280;32708;51.212;6.788;2024-02-26T01:28:03;99169.94;;;10.52;100.00
46955;BME280;32708;51.212;6.788;2024-02-26T01:30:29;99170.41;;;10.73;100.00
46955;BME280;32708;51.212;6.788;2024-02-26T01:32:55;99171.53;;;10.53;100.00
46955;BME280;32708;51.212;6.788;2024-02-26T01:35:21;99169.53;;;10.69;100.00
46955;BME280;32708;51.212;6.788;2024-02-26T01:37:47;99172.31;;;10.54;100.00
46955;BME280;32708;51.212;6.788;2024-02-26T01:40:14;99171.78;;;10.29;100.00
46955;BME280;32708;51.212;6.788;2024-02-26T01:42:45;99178.72;;;10.26;100.00
46955;BME280;32708;51.212;6.788;2024-02-26T01:45:16;99178.78;;;10.45;100.00
46955;BME280;32708;51.212;6.788;2024-02-26T01:47:54;99182.31;;;10.14;100.00
46955;BME280;32708;51.212;6.788;2024-02-26T01:50:21;99176.50;;;10.32;100.00
46955;BME280;32708;51.212;6.788;2024-02-26T01:52:50;99175.09;;;10.06;100.00
46955;BME280;32708;51.212;6.788;2024-02-26T01:55:22;99179.97;;;9.65;100.00
46955;BME280;32708;51.212;6.788;2024-02-26T01:57:51;99183.91;;;9.52;100.00
46955;BME280;32708;51.212;6.788;2024-02-26T02:00:21;99185.63;;;9.29;100.00
46955;BME280;32708;51.212;6.788;2024-02-26T02:02:49;99187.53;;;9.72;100.00
46955;BME280;32708;51.212;6.788;2024-02-26T02:05:17;99197.53;;;9.68;100.00
46955;BME280;32708;51.212;6.788;2024-02-26T02:07:44;99200.72;;;9.42;100.00
46955;BME280;32708;51.212;6.788;2024-02-26T02:10:10;99207.72;;;9.27;100.00
46955;BME280;32708;51.212;6.788;2024-02-26T02:12:37;99202.84;;;9.49;100.00
46955;BME280;32708;51.212;6.788;2024-02-26T02:15:06;99203.38;;;9.38;100.00
46955;BME280;32708;51.212;6.788;2024-02-26T02:17:33;99208.47;;;9.12;100.00
46955;BME280;32708;51.212;6.788;2024-02-26T02:20:00;99215.84;;;9.12;100.00
46955;BME280;32708;51.212;6.788;2024-02-26T02:22:26;99213.13;;;9.40;100.00
46955;BME280;32708;51.212;6.788;2024-02-26T02:24:53;99220.50;;;8.71;100.00
46955;BME280;32708;51.212;6.788;2024-02-26T02:27:20;99225.69;;;8.88;100.00
46955;BME280;32708;51.212;6.788;2024-02-26T02:29:48;99217.28;;;9.21;100.00
46955;BME280;32708;51.212;6.788;2024-02-26T02:32:17;99216.56;;;9.08;100.00
46955;BME280;32708;51.212;6.788;2024-02-26T02:34:44;99205.50;;;8.89;100.00
46955;BME280;32708;51.212;6.788;2024-02-26T02:37:10;99222.09;;;8.72;100.00
46955;BME280;32708;51.212;6.788;2024-02-26T02:39:36;99219.66;;;8.95;100.00
46955;BME280;32708;51.212;6.788;2024-02-26T02:42:03;99215.84;;;9.12;100.00
46955;BME280;32708;51.212;6.788;2024-02-26T02:44:29;99219.41;;;8.47;100.00
46955;BME280;32708;51.212;6.788;2024-02-26T02:46:55;99215.38;;;8.81;100.00
46955;BME280;32708;51.212;6.788;2024-02-26T02:49:21;99222.97;;;8.88;100.00
46955;BME280;32708;51.212;6.788;2024-02-26T02:51:49;99217.19;;;8.77;100.00
46955;BME280;32708;51.212;6.788;2024-02-26T02:54:15;99221.78;;;8.61;100.00
46955;BME280;32708;51.212;6.788;2024-02-26T02:56:41;99212.31;;;8.83;100.00
46955;BME280;32708;51.212;6.788;2024-02-26T02:59:08;99219.75;;;8.98;100.00
46955;BME280;32708;51.212;6.788;2024-02-26T03:01:34;99211.53;;;8.82;100.00
46955;BME280;32708;51.212;6.788;2024-02-26T03:04:00;99217.22;;;9.05;100.00
46955;BME280;32708;51.212;6.788;2024-02-26T03:06:26;99211.31;;;9.16;100.00
46955;BME280;32708;51.212;6.788;2024-02-26T03:08:54;99215.03;;;8.83;100.00
46955;BME280;32708;51.212;6.788;2024-02-26T03:11:20;99229.16;;;8.61;100.00
46955;BME280;32708;51.212;6.788;2024-02-26T03:13:47;99213.81;;;8.68;100.00
46955;BME280;32708;51.212;6.788;2024-02-26T03:16:13;99211.72;;;8.90;100.00
46955;BME280;32708;51.212;6.788;2024-02-26T03:18:40;99220.41;;;8.43;100.00
46955;BME280;32708;51.212;6.788;2024-02-26T03:21:07;99224.34;;;8.70;100.00
46955;BME280;32708;51.212;6.788;2024-02-26T03:23:33;99212.75;;;8.85;100.00
46955;BME280;32708;51.212;6.788;2024-02-26T03:26:03;99221.06;;;8.64;100.00
46955;BME280;32708;51.212;6.788;2024-02-26T03:28:30;99212.91;;;8.76;100.00
46955;BME280;32708;51.212;6.788;2024-02-26T03:31:01;99225.50;;;8.57;100.00
46955;BME280;32708;51.212;6.788;2024-02-26T03:33:28;99233.69;;;8.44;100.00
46955;BME280;32708;51.212;6.788;2024-02-26T03:35:54;99224.16;;;8.63;100.00
46955;BME280;32708;51.212;6.788;2024-02-26T03:38:20;99230.50;;;8.42;100.00
46955;BME280;32708;51.212;6.788;2024-02-26T03:40:46;99224.50;;;8.61;100.00
46955;BME280;32708;51.212;6.788;2024-02-26T03:43:12;99224.16;;;8.63;100.00
46955;BME280;32708;51.212;6.788;2024-02-26T03:45:38;99201.44;;;8.83;100.00
46955;BME280;32708;51.212;6.788;2024-02-26T03:48:05;99216.03;;;8.38;100.00
46955;BME280;32708;51.212;6.788;2024-02-26T03:50:31;99214.97;;;8.67;100.00
46955;BME280;32708;51.212;6.788;2024-02-26T03:52:58;99213.03;;;8.55;100.00
46955;BME280;32708;51.212;6.788;2024-02-26T03:55:25;99219.94;;;8.28;100.00
46955;BME280;32708;51.212;6.788;2024-02-26T03:57:52;99223.25;;;8.59;100.00
46955;BME280;32708;51.212;6.788;2024-02-26T04:00:18;99229.69;;;8.05;100.00
46955;BME280;32708;51.212;6.788;2024-02-26T04:02:46;99228.56;;;8.31;100.00
46955;BME280;32708;51.212;6.788;2024-02-26T04:05:14;99229.38;;;8.55;100.00
46955;BME280;32708;51.212;6.788;2024-02-26T04:07:41;99231.53;;;8.50;100.00
46955;BME280;32708;51.212;6.788;2024-02-26T04:10:11;99239.31;;;8.64;100.00
46955;BME280;32708;51.212;6.788;2024-02-26T04:12:41;99234.22;;;8.74;100.00
46955;BME280;32708;51.212;6.788;2024-02-26T04:15:09;99242.97;;;8.55;100.00
46955;BME280;32708;51.212;6.788;2024-02-26T04:17:37;99240.81;;;8.73;100.00
46955;BME280;32708;51.212;6.788;2024-02-26T04:20:04;99234.69;;;8.64;100.00
46955;BME280;32708;51.212;6.788;2024-02-26T04:22:34;99235.84;;;8.51;100.00
46955;BME280;32708;51.212;6.788;2024-02-26T04:25:00;99235.44;;;8.89;100.00
46955;BME280;32708;51.212;6.788;2024-02-26T04:27:26;99230.00;;;8.77;100.00
46955;BME280;32708;51.212;6.788;2024-02-26T04:29:54;99235.94;;;8.42;100.00
46955;BME280;32708;51.212;6.788;2024-02-26T04:32:21;99256.06;;;7.92;100.00
46955;BME280;32708;51.212;6.788;2024-02-26T04:34:47;99267.78;;;8.17;100.00
46955;BME280;32708;51.212;6.788;2024-02-26T04:37:13;99256.00;;;8.62;100.00
46955;BME280;32708;51.212;6.788;2024-02-26T04:39:39;99255.53;;;8.23;100.00
46955;BME280;32708;51.212;6.788;2024-02-26T04:42:05;99250.22;;;8.64;100.00
46955;BME280;32708;51.212;6.788;2024-02-26T04:44:31;99255.44;;;8.32;100.00
46955;BME280;32708;51.212;6.788;2024-02-26T04:46:57;99278.28;;;8.07;100.00
46955;BME280;32708;51.212;6.788;2024-02-26T04:49:23;99269.81;;;8.08;100.00
46955;BME280;32708;51.212;6.788;2024-02-26T04:51:49;99282.13;;;7.93;100.00
46955;BME280;32708;51.212;6.788;2024-02-26T04:54:16;99269.78;;;8.20;100.00
46955;BME280;32708;51.212;6.788;2024-02-26T04:56:43;99274.03;;;8.42;100.00
46955;BME280;32708;51.212;6.788;2024-02-26T04:59:10;99277.00;;;7.80;100.00
46955;BME280;32708;51.212;6.788;2024-02-26T05:01:36;99268.09;;;8.04;100.00
46955;BME280;32708;51.212;6.788;2024-02-26T05:04:02;99271.94;;;8.03;100.00
46955;BME280;32708;51.212;6.788;2024-02-26T05:06:29;99282.47;;;7.59;100.00
46955;BME280;32708;51.212;6.788;2024-02-26T05:08:55;99277.97;;;8.08;100.00
46955;BME280;32708;51.212;6.788;2024-02-26T05:11:21;99277.97;;;8.33;100.00
46955;BME280;32708;51.212;6.788;2024-02-26T05:13:48;99279.66;;;8.00;100.00
46955;BME280;32708;51.212;6.788;2024-02-26T05:16:14;99291.38;;;7.80;100.00
46955;BME280;32708;51.212;6.788;2024-02-26T05:18:40;99294.47;;;7.58;100.00
46955;BME280;32708;51.212;6.788;2024-02-26T05:21:06;99286.66;;;8.02;100.00
46955;BME280;32708;51.212;6.788;2024-02-26T05:23:32;99294.09;;;7.80;100.00
46955;BME280;32708;51.212;6.788;2024-02-26T05:25:58;99294.16;;;7.38;100.00
46955;BME280;32708;51.212;6.788;2024-02-26T05:28:24;99311.34;;;7.42;100.00
46955;BME280;32708;51.212;6.788;2024-02-26T05:30:51;99302.97;;;8.02;100.00
46955;BME280;32708;51.212;6.788;2024-02-26T05:33:17;99298.28;;;7.57;100.00
46955;BME280;32708;51.212;6.788;2024-02-26T05:35:43;99294.16;;;8.17;100.00
46955;BME280;32708;51.212;6.788;2024-02-26T05:38:09;99297.41;;;7.98;100.00
46955;BME280;32708;51.212;6.788;2024-02-26T05:40:35;99304.34;;;8.08;100.00
46955;BME280;32708;51.212;6.788;2024-02-26T05:43:01;99314.81;;;7.85;100.00
46955;BME280;32708;51.212;6.788;2024-02-26T05:45:28;99312.03;;;7.93;100.00
46955;BME280;32708;51.212;6.788;2024-02-26T05:47:54;99312.06;;;8.18;100.00
46955;BME280;32708;51.212;6.788;2024-02-26T05:50:20;99318.75;;;7.75;100.00
46955;BME280;32708;51.212;6.788;2024-02-26T05:52:46;99313.50;;;7.58;100.00
46955;BME280;32708;51.212;6.788;2024-02-26T05:55:12;99324.13;;;7.63;100.00
46955;BME280;32708;51.212;6.788;2024-02-26T05:57:39;99326.66;;;7.68;100.00
46955;BME280;32708;51.212;6.788;2024-02-26T06:00:06;99330.50;;;7.67;100.00
46955;BME280;32708;51.212;6.788;2024-02-26T06:02:38;99327.06;;;7.58;100.00
46955;BME280;32708;51.212;6.788;2024-02-26T06:05:05;99326.53;;;7.64;100.00
46955;BME280;32708;51.212;6.788;2024-02-26T06:07:33;99336.31;;;7.57;100.00
46955;BME280;32708;51.212;6.788;2024-02-26T06:09:59;99342.44;;;7.54;100.00
46955;BME280;32708;51.212;6.788;2024-02-26T06:12:25;99335.16;;;8.12;100.00
46955;BME280;32708;51.212;6.788;2024-02-26T06:14:52;99343.00;;;7.80;100.00
46955;BME280;32708;51.212;6.788;2024-02-26T06:17:18;99340.28;;;8.25;100.00
46955;BME280;32708;51.212;6.788;2024-02-26T06:19:44;99334.81;;;8.13;100.00
46955;BME280;32708;51.212;6.788;2024-02-26T06:22:10;99337.22;;;7.82;100.00
46955;BME280;32708;51.212;6.788;2024-02-26T06:24:37;99355.97;;;7.95;100.00
46955;BME280;32708;51.212;6.788;2024-02-26T06:27:03;99355.81;;;7.92;100.00
46955;BME280;32708;51.212;6.788;2024-02-26T06:29:29;99366.00;;;7.62;100.00
46955;BME280;32708;51.212;6.788;2024-02-26T06:31:55;99362.91;;;7.72;100.00
46955;BME280;32708;51.212;6.788;2024-02-26T06:34:21;99370.94;;;8.02;100.00
46955;BME280;32708;51.212;6.788;2024-02-26T06:36:48;99375.78;;;7.96;100.00
46955;BME280;32708;51.212;6.788;2024-02-26T06:39:14;99373.25;;;7.91;100.00
46955;BME280;32708;51.212;6.788;2024-02-26T06:41:42;99376.56;;;7.96;100.00
46955;BME280;32708;51.212;6.788;2024-02-26T06:44:08;99376.47;;;8.38;100.00
46955;BME280;32708;51.212;6.788;2024-02-26T06:46:34;99375.34;;;8.06;100.00
46955;BME280;32708;51.212;6.788;2024-02-26T06:49:00;99377.69;;;7.95;100.00
46955;BME280;32708;51.212;6.788;2024-02-26T06:51:26;99384.72;;;7.96;100.00
46955;BME280;32708;51.212;6.788;2024-02-26T06:53:52;99369.31;;;7.67;100.00
46955;BME280;32708;51.212;6.788;2024-02-26T06:56:20;99395.84;;;8.04;100.00
46955;BME280;32708;51.212;6.788;2024-02-26T06:58:49;99395.59;;;7.96;100.00
46955;BME280;32708;51.212;6.788;2024-02-26T07:01:16;99402.28;;;7.78;100.00
46955;BME280;32708;51.212;6.788;2024-02-26T07:03:42;99407.47;;;8.25;100.00
46955;BME280;32708;51.212;6.788;2024-02-26T07:06:09;99398.06;;;8.35;100.00
46955;BME280;32708;51.212;6.788;2024-02-26T07:08:35;99401.97;;;8.13;100.00
46955;BME280;32708;51.212;6.788;2024-02-26T07:11:01;99409.97;;;7.97;100.00
46955;BME280;32708;51.212;6.788;2024-02-26T07:13:27;99415.56;;;7.80;100.00
46955;BME280;32708;51.212;6.788;2024-02-26T07:15:53;99425.13;;;7.65;100.00
46955;BME280;32708;51.212;6.788;2024-02-26T07:18:19;99432.19;;;7.36;100.00
46955;BME280;32708;51.212;6.788;2024-02-26T07:20:45;99421.00;;;8.13;100.00
46955;BME280;32708;51.212;6.788;2024-02-26T07:23:12;99435.66;;;7.87;100.00
46955;BME280;32708;51.212;6.788;2024-02-26T07:25:38;99424.56;;;7.92;100.00
46955;BME280;32708;51.212;6.788;2024-02-26T07:28:05;99435.31;;;7.68;100.00
46955;BME280;32708;51.212;6.788;2024-02-26T07:30:31;99432.75;;;8.05;100.00
46955;BME280;32708;51.212;6.788;2024-02-26T07:32:57;99439.00;;;7.42;100.00
46955;BME280;32708;51.212;6.788;2024-02-26T07:35:24;99443.31;;;7.14;100.00
46955;BME280;32708;51.212;6.788;2024-02-26T07:37:50;99443.78;;;8.08;100.00
46955;BME280;32708;51.212;6.788;2024-02-26T07:40:16;99433.53;;;7.72;100.00
46955;BME280;32708;51.212;6.788;2024-02-26T07:42:42;99448.03;;;7.76;100.00
46955;BME280;32708;51.212;6.788;2024-02-26T07:45:09;99448.69;;;7.52;100.00
46955;BME280;32708;51.212;6.788;2024-02-26T07:47:36;99454.59;;;7.75;100.00
46955;BME280;32708;51.212;6.788;2024-02-26T07:50:04;99447.94;;;7.64;100.00
46955;BME280;32708;51.212;6.788;2024-02-26T07:52:30;99455.19;;;7.60;100.00
46955;BME280;32708;51.212;6.788;2024-02-26T07:54:56;99447.84;;;8.02;100.00
46955;BME280;32708;51.212;6.788;2024-02-26T07:57:22;99452.94;;;7.83;100.00
46955;BME280;32708;51.212;6.788;2024-02-26T07:59:49;99447.66;;;8.19;100.00
46955;BME280;32708;51.212;6.788;2024-02-26T08:02:16;99444.41;;;8.26;100.00
46955;BME280;32708;51.212;6.788;2024-02-26T08:04:42;99461.63;;;7.76;100.00
46955;BME280;32708;51.212;6.788;2024-02-26T08:07:09;99460.38;;;7.94;100.00
46955;BME280;32708;51.212;6.788;2024-02-26T08:09:35;99474.06;;;7.98;100.00
46955;BME280;32708;51.212;6.788;2024-02-26T08:12:01;99460.66;;;8.14;100.00
46955;BME280;32708;51.212;6.788;2024-02-26T08:14:27;99479.84;;;7.96;100.00
46955;BME280;32708;51.212;6.788;2024-02-26T08:16:53;99468.97;;;8.38;100.00
46955;BME280;32708;51.212;6.788;2024-02-26T08:19:20;99482.75;;;7.70;100.00
46955;BME280;32708;51.212;6.788;2024-02-26T08:21:46;99473.66;;;8.29;100.00
46955;BME280;32708;51.212;6.788;2024-02-26T08:24:12;99482.22;;;8.40;100.00
46955;BME280;32708;51.212;6.788;2024-02-26T08:26:38;99477.63;;;8.52;100.00
46955;BME280;32708;51.212;6.788;2024-02-26T08:29:04;99468.28;;;8.99;100.00
46955;BME280;32708;51.212;6.788;2024-02-26T08:31:30;99468.47;;;8.69;100.00
46955;BME280;32708;51.212;6.788;2024-02-26T08:33:57;99465.44;;;8.95;100.00
46955;BME280;32708;51.212;6.788;2024-02-26T08:36:25;99470.22;;;8.98;100.00
46955;BME280;32708;51.212;6.788;2024-02-26T08:38:51;99476.13;;;9.00;100.00
46955;BME280;32708;51.212;6.788;2024-02-26T08:41:17;99474.84;;;8.98;100.00
46955;BME280;32708;51.212;6.788;2024-02-26T08:43:44;99479.81;;;8.71;100.00
46955;BME280;32708;51.212;6.788;2024-02-26T08:46:12;99476.97;;;8.68;100.00
46955;BME280;32708;51.212;6.788;2024-02-26T08:48:39;99488.19;;;8.66;100.00
46955;BME280;32708;51.212;6.788;2024-02-26T08:51:08;99499.44;;;8.77;100.00
46955;BME280;32708;51.212;6.788;2024-02-26T08:53:35;99507.00;;;8.59;100.00
46955;BME280;32708;51.212;6.788;2024-02-26T08:56:02;99500.19;;;9.10;100.00
46955;BME280;32708;51.212;6.788;2024-02-26T08:58:29;99496.66;;;8.52;100.00
46955;BME280;32708;51.212;6.788;2024-02-26T09:00:55;99499.22;;;8.82;100.00
46955;BME280;32708;51.212;6.788;2024-02-26T09:03:22;99508.53;;;8.48;100.00
46955;BME280;32708;51.212;6.788;2024-02-26T09:05:49;99500.38;;;8.48;100.00
46955;BME280;32708;51.212;6.788;2024-02-26T09:08:15;99510.91;;;8.28;100.00
46955;BME280;32708;51.212;6.788;2024-02-26T09:10:42;99525.34;;;8.08;100.00
46955;BME280;32708;51.212;6.788;2024-02-26T09:13:10;99526.84;;;8.18;100.00
46955;BME280;32708;51.212;6.788;2024-02-26T09:15:37;99525.88;;;8.22;100.00
46955;BME280;32708;51.212;6.788;2024-02-26T09:18:08;99534.34;;;8.21;100.00
46955;BME280;32708;51.212;6.788;2024-02-26T09:20:37;99529.13;;;8.37;100.00
46955;BME280;32708;51.212;6.788;2024-02-26T09:23:04;99533.78;;;8.36;100.00
46955;BME280;32708;51.212;6.788;2024-02-26T09:25:38;99531.69;;;8.33;100.00
46955;BME280;32708;51.212;6.788;2024-02-26T09:28:05;99538.00;;;8.25;100.00
46955;BME280;32708;51.212;6.788;2024-02-26T09:30:31;99535.34;;;8.58;100.00
46955;BME280;32708;51.212;6.788;2024-02-26T09:32:58;99548.72;;;8.21;100.00
46955;BME280;32708;51.212;6.788;2024-02-26T09:35:24;99550.91;;;8.28;100.00
46955;BME280;32708;51.212;6.788;2024-02-26T09:37:50;99548.00;;;8.33;100.00
46955;BME280;32708;51.212;6.788;2024-02-26T09:40:16;99557.22;;;8.62;100.00
46955;BME280;32708;51.212;6.788;2024-02-26T09:42:46;99554.13;;;8.51;100.00
46955;BME280;32708;51.212;6.788;2024-02-26T09:45:18;99563.44;;;8.20;100.00
46955;BME280;32708;51.212;6.788;2024-02-26T09:47:48;99562.84;;;8.57;100.00
46955;BME280;32708;51.212;6.788;2024-02-26T09:50:17;99565.53;;;8.44;100.00
46955;BME280;32708;51.212;6.788;2024-02-26T09:52:49;99568.16;;;8.32;100.00
46955;BME280;32708;51.212;6.788;2024-02-26T09:55:16;99576.19;;;9.03;100.00
46955;BME280;32708;51.212;6.788;2024-02-26T09:57:46;99585.75;;;8.55;100.00
46955;BME280;32708;51.212;6.788;2024-02-26T10:00:18;99576.28;;;8.41;100.00
46955;BME280;32708;51.212;6.788;2024-02-26T10:02:48;99589.50;;;8.21;100.00
46955;BME280;32708;51.212;6.788;2024-02-26T10:05:18;99589.69;;;8.46;100.00
46955;BME280;32708;51.212;6.788;2024-02-26T10:07:48;99599.28;;;8.22;100.00
46955;BME280;32708;51.212;6.788;2024-02-26T10:10:17;99597.84;;;8.67;100.00
46955;BME280;32708;51.212;6.788;2024-02-26T10:12:43;99600.63;;;8.79;100.00
46955;BME280;32708;51.212;6.788;2024-02-26T10:15:10;99599.00;;;9.11;100.00
46955;BME280;32708;51.212;6.788;2024-02-26T10:17:37;99599.63;;;8.63;100.00
46955;BME280;32708;51.212;6.788;2024-02-26T10:20:15;99604.69;;;9.18;100.00
46955;BME280;32708;51.212;6.788;2024-02-26T10:22:42;99598.91;;;9.20;100.00
46955;BME280;32708;51.212;6.788;2024-02-26T10:25:09;99613.75;;;8.77;100.00
46955;BME280;32708;51.212;6.788;2024-02-26T10:27:35;99609.09;;;9.10;100.00
46955;BME280;32708;51.212;6.788;2024-02-26T10:30:17;99614.25;;;8.58;100.00
46955;BME280;32708;51.212;6.788;2024-02-26T10:32:46;99609.38;;;9.42;100.00
46955;BME280;32708;51.212;6.788;2024-02-26T10:35:16;99601.78;;;9.48;100.00
46955;BME280;32708;51.212;6.788;2024-02-26T10:37:50;99598.47;;;9.42;100.00
46955;BME280;32708;51.212;6.788;2024-02-26T10:40:17;99617.47;;;9.05;100.00
46955;BME280;32708;51.212;6.788;2024-02-26T10:42:44;99616.72;;;8.84;100.00
46955;BME280;32708;51.212;6.788;2024-02-26T10:45:12;99636.69;;;8.88;100.00
46955;BME280;32708;51.212;6.788;2024-02-26T10:47:40;99630.00;;;9.19;100.00
46955;BME280;32708;51.212;6.788;2024-02-26T10:50:08;99626.78;;;9.04;100.00
46955;BME280;32708;51.212;6.788;2024-02-26T10:52:36;99626.56;;;9.09;100.00
46955;BME280;32708;51.212;6.788;2024-02-26T10:55:05;99631.47;;;9.28;100.00
46955;BME280;32708;51.212;6.788;2024-02-26T10:57:45;99629.34;;;9.34;100.00
46955;BME280;32708;51.212;6.788;2024-02-26T11:00:16;99631.03;;;9.26;100.00
46955;BME280;32708;51.212;6.788;2024-02-26T11:02:45;99635.19;;;9.12;100.00
46955;BME280;32708;51.212;6.788;2024-02-26T11:05:14;99650.22;;;8.97;100.00
46955;BME280;32708;51.212;6.788;2024-02-26T11:07:42;99645.25;;;8.78;100.00
46955;BME280;32708;51.212;6.788;2024-02-26T11:10:11;99653.00;;;9.09;100.00
46955;BME280;32708;51.212;6.788;2024-02-26T11:12:40;99671.41;;;8.91;100.00
46955;BME280;32708;51.212;6.788;2024-02-26T11:15:08;99674.34;;;8.86;100.00
46955;BME280;32708;51.212;6.788;2024-02-26T11:17:36;99671.41;;;8.49;100.00
46955;BME280;32708;51.212;6.788;2024-02-26T11:20:09;99682.22;;;9.33;100.00
46955;BME280;32708;51.212;6.788;2024-02-26T11:22:37;99675.66;;;9.34;100.00
46955;BME280;32708;51.212;6.788;2024-02-26T11:25:04;99672.22;;;8.71;100.00
46955;BME280;32708;51.212;6.788;2024-02-26T11:27:48;99682.44;;;8.95;100.00
46955;BME280;32708;51.212;6.788;2024-02-26T11:30:19;99686.88;;;8.78;100.00
46955;BME280;32708;51.212;6.788;2024-02-26T11:32:47;99690.72;;;8.98;100.00
46955;BME280;32708;51.212;6.788;2024-02-26T11:35:15;99689.44;;;9.17;100.00
46955;BME280;32708;51.212;6.788;2024-02-26T11:37:55;99693.06;;;8.67;100.00
46955;BME280;32708;51.212;6.788;2024-02-26T11:40:25;99686.69;;;8.63;100.00
46955;BME280;32708;51.212;6.788;2024-02-26T11:42:53;99689.53;;;8.16;100.00
46955;BME280;32708;51.212;6.788;2024-02-26T11:48:19;99682.91;;;9.30;100.00
46955;BME280;32708;51.212;6.788;2024-02-26T11:50:52;99670.34;;;8.83;100.00
46955;BME280;32708;51.212;6.788;2024-02-26T11:53:31;99673.84;;;8.72;100.00
46955;BME280;32708;51.212;6.788;2024-02-26T11:58:46;99682.81;;;8.43;100.00
46955;BME280;32708;51.212;6.788;2024-02-26T12:01:45;99694.84;;;8.83;100.00
46955;BME280;32708;51.212;6.788;2024-02-26T12:04:23;99686.16;;;8.69;100.00
46955;BME280;32708;51.212;6.788;2024-02-26T12:06:55;99689.81;;;8.94;100.00
46955;BME280;32708;51.212;6.788;2024-02-26T12:09:38;99704.25;;;8.15;100.00
46955;BME280;32708;51.212;6.788;2024-02-26T12:12:06;99707.06;;;8.98;100.00
46955;BME280;32708;51.212;6.788;2024-02-26T12:14:50;99703.38;;;9.36;100.00
46955;BME280;32708;51.212;6.788;2024-02-26T12:17:23;99710.28;;;8.79;100.00
46955;BME280;32708;51.212;6.788;2024-02-26T12:19:51;99714.31;;;8.52;100.00
46955;BME280;32708;51.212;6.788;2024-02-26T12:22:19;99708.13;;;9.39;100.00
46955;BME280;32708;51.212;6.788;2024-02-26T12:24:47;99697.13;;;9.02;100.00
46955;BME280;32708;51.212;6.788;2024-02-26T12:27:13;99711.28;;;9.29;100.00
46955;BME280;32708;51.212;6.788;2024-02-26T12:29:41;99706.66;;;9.29;100.00
46955;BME280;32708;51.212;6.788;2024-02-26T12:32:08;99707.50;;;9.21;100.00
46955;BME280;32708;51.212;6.788;2024-02-26T12:34:34;99720.03;;;9.01;100.00
46955;BME280;32708;51.212;6.788;2024-02-26T12:37:01;99703.22;;;8.99;100.00
46955;BME280;32708;51.212;6.788;2024-02-26T12:39:28;99710.84;;;8.64;100.00
46955;BME280;32708;51.212;6.788;2024-02-26T12:41:58;99728.53;;;8.79;100.00
46955;BME280;32708;51.212;6.788;2024-02-26T12:44:25;99725.97;;;9.49;100.00
46955;BME280;32708;51.212;6.788;2024-02-26T12:47:07;99734.00;;;9.66;100.00
46955;BME280;32708;51.212;6.788;2024-02-26T12:49:36;99718.94;;;9.93;100.00
46955;BME280;32708;51.212;6.788;2024-02-26T12:52:14;99731.19;;;9.42;100.00
46955;BME280;32708;51.212;6.788;2024-02-26T12:54:44;99733.59;;;9.43;100.00
46955;BME280;32708;51.212;6.788;2024-02-26T12:57:26;99749.28;;;9.25;100.00
46955;BME280;32708;51.212;6.788;2024-02-26T12:59:56;99750.25;;;9.42;100.00
46955;BME280;32708;51.212;6.788;2024-02-26T13:02:23;99760.25;;;9.37;100.00
46955;BME280;32708;51.212;6.788;2024-02-26T13:05:02;99750.59;;;9.73;100.00